South Boston, Massachusetts
Current Conditions -  °F | °C
As of 11:54 AM on Monday 22 Dec 2014 (Local Time) from KBOS Reporting Station
Broken Clouds Broken Clouds  
Wind Chill: 37°   Ceiling: 2700
Heat Index: 42°   Visibility: 10mi
Dew Point: 37°   Wind: 9mph
Humidity: 82%   Direction: 40°NE
Pressure: 30.34"   Gusts: NA
Location:  42.3356°N, 71.0408°W
Report Text: KBOS 221654Z 04008KT 10SM BKN027 BKN055 06/03 A3034 RMK AO2 SLP274 T00560028
Loading
Personal Weather Stations






























Interactive Weather Map New forecast layout! Learn more

10-Day Weather Forecast

Advertisements
Track Severe Weather on mobile